sensor_id;sensor_type;location;lat;lon;timestamp;temperature;humidity
21582;DHT22;10952;50.836;4.348;2023-12-20T00:01:00;8.20;99.90
21582;DHT22;10952;50.836;4.348;2023-12-20T00:03:26;8.20;99.90
21582;DHT22;10952;50.836;4.348;2023-12-20T00:05:52;8.10;99.90
21582;DHT22;10952;50.836;4.348;2023-12-20T00:08:18;8.00;99.90
21582;DHT22;10952;50.836;4.348;2023-12-20T00:10:44;8.10;99.90
21582;DHT22;10952;50.836;4.348;2023-12-20T00:13:10;8.20;99.90
21582;DHT22;10952;50.836;4.348;2023-12-20T00:15:36;8.20;99.90
21582;DHT22;10952;50.836;4.348;2023-12-20T00:18:02;8.10;99.90
21582;DHT22;10952;50.836;4.348;2023-12-20T00:20:28;8.10;99.90
21582;DHT22;10952;50.836;4.348;2023-12-20T00:22:57;8.00;99.90
21582;DHT22;10952;50.836;4.348;2023-12-20T00:25:24;7.90;99.90
21582;DHT22;10952;50.836;4.348;2023-12-20T00:27:50;8.00;99.90
21582;DHT22;10952;50.836;4.348;2023-12-20T00:30:16;8.00;99.90
21582;DHT22;10952;50.836;4.348;2023-12-20T00:32:42;7.80;99.90
21582;DHT22;10952;50.836;4.348;2023-12-20T00:35:13;7.70;99.90
21582;DHT22;10952;50.836;4.348;2023-12-20T00:37:39;7.70;99.90
21582;DHT22;10952;50.836;4.348;2023-12-20T00:40:05;7.70;99.90
21582;DHT22;10952;50.836;4.348;2023-12-20T00:42:31;7.70;99.90
21582;DHT22;10952;50.836;4.348;2023-12-20T00:44:58;7.70;99.90
21582;DHT22;10952;50.836;4.348;2023-12-20T00:47:24;7.70;99.90
21582;DHT22;10952;50.836;4.348;2023-12-20T00:49:50;7.80;99.90
21582;DHT22;10952;50.836;4.348;2023-12-20T00:52:15;7.80;99.90
21582;DHT22;10952;50.836;4.348;2023-12-20T00:54:43;7.80;99.90
21582;DHT22;10952;50.836;4.348;2023-12-20T00:57:09;7.70;99.90
21582;DHT22;10952;50.836;4.348;2023-12-20T00:59:34;7.80;99.90
21582;DHT22;10952;50.836;4.348;2023-12-20T01:02:00;7.70;99.90
21582;DHT22;10952;50.836;4.348;2023-12-20T01:04:26;7.60;99.90
21582;DHT22;10952;50.836;4.348;2023-12-20T01:06:52;7.60;99.90
21582;DHT22;10952;50.836;4.348;2023-12-20T01:09:18;7.60;99.90
21582;DHT22;10952;50.836;4.348;2023-12-20T01:11:44;7.60;99.90
21582;DHT22;10952;50.836;4.348;2023-12-20T01:14:11;7.60;99.90
21582;DHT22;10952;50.836;4.348;2023-12-20T01:16:37;7.60;99.90
21582;DHT22;10952;50.836;4.348;2023-12-20T01:19:03;7.60;99.90
21582;DHT22;10952;50.836;4.348;2023-12-20T01:21:30;7.60;99.90
21582;DHT22;10952;50.836;4.348;2023-12-20T01:23:55;7.50;99.90
21582;DHT22;10952;50.836;4.348;2023-12-20T01:26:21;7.60;99.90
21582;DHT22;10952;50.836;4.348;2023-12-20T01:28:47;7.60;99.90
21582;DHT22;10952;50.836;4.348;2023-12-20T01:31:12;7.70;99.90
21582;DHT22;10952;50.836;4.348;2023-12-20T01:33:38;7.70;99.90
21582;DHT22;10952;50.836;4.348;2023-12-20T01:36:04;7.60;99.90
21582;DHT22;10952;50.836;4.348;2023-12-20T01:38:30;7.50;99.90
21582;DHT22;10952;50.836;4.348;2023-12-20T01:40:55;7.60;99.90
21582;DHT22;10952;50.836;4.348;2023-12-20T01:43:21;7.50;99.90
21582;DHT22;10952;50.836;4.348;2023-12-20T01:45:48;7.50;99.90
21582;DHT22;10952;50.836;4.348;2023-12-20T01:48:14;7.40;99.90
21582;DHT22;10952;50.836;4.348;2023-12-20T01:50:40;7.50;99.90
21582;DHT22;10952;50.836;4.348;2023-12-20T01:53:09;7.40;99.90
21582;DHT22;10952;50.836;4.348;2023-12-20T01:55:39;7.50;99.90
21582;DHT22;10952;50.836;4.348;2023-12-20T01:58:07;7.50;99.90
21582;DHT22;10952;50.836;4.348;2023-12-20T02:00:33;7.50;99.90
21582;DHT22;10952;50.836;4.348;2023-12-20T02:03:02;7.50;99.90
21582;DHT22;10952;50.836;4.348;2023-12-20T02:05:30;7.40;99.90
21582;DHT22;10952;50.836;4.348;2023-12-20T02:07:56;7.30;99.90
21582;DHT22;10952;50.836;4.348;2023-12-20T02:10:21;7.30;99.90
21582;DHT22;10952;50.836;4.348;2023-12-20T02:12:47;7.40;99.90
21582;DHT22;10952;50.836;4.348;2023-12-20T02:15:13;7.30;99.90
21582;DHT22;10952;50.836;4.348;2023-12-20T02:17:39;7.30;99.90
21582;DHT22;10952;50.836;4.348;2023-12-20T02:20:06;7.30;99.90
21582;DHT22;10952;50.836;4.348;2023-12-20T02:22:32;7.30;99.90
21582;DHT22;10952;50.836;4.348;2023-12-20T02:24:58;7.20;99.90
21582;DHT22;10952;50.836;4.348;2023-12-20T02:27:23;7.10;99.90
21582;DHT22;10952;50.836;4.348;2023-12-20T02:29:50;7.20;99.90
21582;DHT22;10952;50.836;4.348;2023-12-20T02:32:20;7.20;99.90
21582;DHT22;10952;50.836;4.348;2023-12-20T02:34:47;7.10;99.90
21582;DHT22;10952;50.836;4.348;2023-12-20T02:37:13;7.20;99.90
21582;DHT22;10952;50.836;4.348;2023-12-20T02:39:39;7.20;99.90
21582;DHT22;10952;50.836;4.348;2023-12-20T02:42:05;7.20;99.90
21582;DHT22;10952;50.836;4.348;2023-12-20T02:44:30;7.20;99.90
21582;DHT22;10952;50.836;4.348;2023-12-20T02:46:56;7.20;99.90
21582;DHT22;10952;50.836;4.348;2023-12-20T02:49:22;7.30;99.90
21582;DHT22;10952;50.836;4.348;2023-12-20T02:51:47;7.40;99.90
21582;DHT22;10952;50.836;4.348;2023-12-20T02:54:13;7.30;99.90
21582;DHT22;10952;50.836;4.348;2023-12-20T02:56:39;7.30;99.90
21582;DHT22;10952;50.836;4.348;2023-12-20T02:59:05;7.30;99.90
21582;DHT22;10952;50.836;4.348;2023-12-20T03:01:31;7.30;99.90
21582;DHT22;10952;50.836;4.348;2023-12-20T03:03:57;7.30;99.90
21582;DHT22;10952;50.836;4.348;2023-12-20T03:06:23;7.30;99.90
21582;DHT22;10952;50.836;4.348;2023-12-20T03:08:50;7.30;99.90
21582;DHT22;10952;50.836;4.348;2023-12-20T03:11:16;7.40;99.90
21582;DHT22;10952;50.836;4.348;2023-12-20T03:13:42;7.40;99.90
21582;DHT22;10952;50.836;4.348;2023-12-20T03:16:11;7.40;99.90
21582;DHT22;10952;50.836;4.348;2023-12-20T03:18:43;7.40;99.90
21582;DHT22;10952;50.836;4.348;2023-12-20T03:21:09;7.40;99.90
21582;DHT22;10952;50.836;4.348;2023-12-20T03:23:35;7.40;99.90
21582;DHT22;10952;50.836;4.348;2023-12-20T03:26:00;7.50;99.90
21582;DHT22;10952;50.836;4.348;2023-12-20T03:28:27;7.50;99.90
21582;DHT22;10952;50.836;4.348;2023-12-20T03:30:53;7.50;99.90
21582;DHT22;10952;50.836;4.348;2023-12-20T03:33:19;7.50;99.90
21582;DHT22;10952;50.836;4.348;2023-12-20T03:35:45;7.60;99.90
21582;DHT22;10952;50.836;4.348;2023-12-20T03:38:11;7.70;99.90
21582;DHT22;10952;50.836;4.348;2023-12-20T03:40:37;7.80;99.90
21582;DHT22;10952;50.836;4.348;2023-12-20T03:43:02;7.70;99.90
21582;DHT22;10952;50.836;4.348;2023-12-20T03:45:28;7.60;99.90
21582;DHT22;10952;50.836;4.348;2023-12-20T03:47:54;7.60;99.90
21582;DHT22;10952;50.836;4.348;2023-12-20T03:50:25;7.60;99.90
21582;DHT22;10952;50.836;4.348;2023-12-20T03:52:50;7.50;99.90
21582;DHT22;10952;50.836;4.348;2023-12-20T03:55:16;7.40;99.90
21582;DHT22;10952;50.836;4.348;2023-12-20T03:57:42;7.50;99.90
21582;DHT22;10952;50.836;4.348;2023-12-20T04:00:08;7.50;99.90
21582;DHT22;10952;50.836;4.348;2023-12-20T04:02:41;7.40;99.90
21582;DHT22;10952;50.836;4.348;2023-12-20T04:05:07;7.40;99.90
21582;DHT22;10952;50.836;4.348;2023-12-20T04:07:33;7.40;99.90
21582;DHT22;10952;50.836;4.348;2023-12-20T04:10:00;7.40;99.90
21582;DHT22;10952;50.836;4.348;2023-12-20T04:12:27;7.50;99.90
21582;DHT22;10952;50.836;4.348;2023-12-20T04:14:52;7.60;99.90
21582;DHT22;10952;50.836;4.348;2023-12-20T04:17:18;7.60;99.90
21582;DHT22;10952;50.836;4.348;2023-12-20T04:19:44;7.50;99.90
21582;DHT22;10952;50.836;4.348;2023-12-20T04:22:10;7.60;99.90
21582;DHT22;10952;50.836;4.348;2023-12-20T04:24:35;7.60;99.90
21582;DHT22;10952;50.836;4.348;2023-12-20T04:27:02;7.60;99.90
21582;DHT22;10952;50.836;4.348;2023-12-20T04:29:27;7.50;99.90
21582;DHT22;10952;50.836;4.348;2023-12-20T04:31:53;7.60;99.90
21582;DHT22;10952;50.836;4.348;2023-12-20T04:34:19;7.60;99.90
21582;DHT22;10952;50.836;4.348;2023-12-20T04:36:45;7.60;99.90
21582;DHT22;10952;50.836;4.348;2023-12-20T04:39:12;7.60;99.90
21582;DHT22;10952;50.836;4.348;2023-12-20T04:41:38;7.50;99.90
21582;DHT22;10952;50.836;4.348;2023-12-20T04:44:05;7.50;99.90
21582;DHT22;10952;50.836;4.348;2023-12-20T04:46:31;7.60;99.90
21582;DHT22;10952;50.836;4.348;2023-12-20T04:48:57;7.60;99.90
21582;DHT22;10952;50.836;4.348;2023-12-20T04:51:23;7.40;99.90
21582;DHT22;10952;50.836;4.348;2023-12-20T04:53:48;7.40;99.90
21582;DHT22;10952;50.836;4.348;2023-12-20T04:56:15;7.40;99.90
21582;DHT22;10952;50.836;4.348;2023-12-20T04:58:42;7.50;99.90
21582;DHT22;10952;50.836;4.348;2023-12-20T05:01:08;7.50;99.90
21582;DHT22;10952;50.836;4.348;2023-12-20T05:03:34;7.50;99.90
21582;DHT22;10952;50.836;4.348;2023-12-20T05:05:59;7.60;99.90
21582;DHT22;10952;50.836;4.348;2023-12-20T05:08:25;7.50;99.90
21582;DHT22;10952;50.836;4.348;2023-12-20T05:10:56;7.60;99.90
21582;DHT22;10952;50.836;4.348;2023-12-20T05:13:22;7.50;99.90
21582;DHT22;10952;50.836;4.348;2023-12-20T05:15:47;7.40;99.90
21582;DHT22;10952;50.836;4.348;2023-12-20T05:18:13;7.40;99.90
21582;DHT22;10952;50.836;4.348;2023-12-20T05:20:40;7.40;99.90
21582;DHT22;10952;50.836;4.348;2023-12-20T05:23:06;7.30;99.90
21582;DHT22;10952;50.836;4.348;2023-12-20T05:25:32;7.20;99.90
21582;DHT22;10952;50.836;4.348;2023-12-20T05:27:58;7.20;99.90
21582;DHT22;10952;50.836;4.348;2023-12-20T05:30:23;7.20;99.90
21582;DHT22;10952;50.836;4.348;2023-12-20T05:32:49;7.20;99.90
21582;DHT22;10952;50.836;4.348;2023-12-20T05:35:15;7.10;99.90
21582;DHT22;10952;50.836;4.348;2023-12-20T05:37:41;7.10;99.90
21582;DHT22;10952;50.836;4.348;2023-12-20T05:40:07;7.10;99.90
21582;DHT22;10952;50.836;4.348;2023-12-20T05:42:37;7.00;99.90
21582;DHT22;10952;50.836;4.348;2023-12-20T05:45:04;7.00;99.90
21582;DHT22;10952;50.836;4.348;2023-12-20T05:47:31;7.10;99.90
21582;DHT22;10952;50.836;4.348;2023-12-20T05:49:57;7.00;99.90
21582;DHT22;10952;50.836;4.348;2023-12-20T05:52:24;7.00;99.90
21582;DHT22;10952;50.836;4.348;2023-12-20T05:54:49;6.90;99.90
21582;DHT22;10952;50.836;4.348;2023-12-20T05:57:15;6.90;99.90
21582;DHT22;10952;50.836;4.348;2023-12-20T05:59:41;7.00;99.90
21582;DHT22;10952;50.836;4.348;2023-12-20T06:02:06;7.00;99.90
21582;DHT22;10952;50.836;4.348;2023-12-20T06:04:32;6.90;99.90
21582;DHT22;10952;50.836;4.348;2023-12-20T06:06:58;6.90;99.90
21582;DHT22;10952;50.836;4.348;2023-12-20T06:09:26;6.90;99.90
21582;DHT22;10952;50.836;4.348;2023-12-20T06:11:52;6.90;99.90
21582;DHT22;10952;50.836;4.348;2023-12-20T06:14:18;6.80;99.90
21582;DHT22;10952;50.836;4.348;2023-12-20T06:16:45;6.90;99.90
21582;DHT22;10952;50.836;4.348;2023-12-20T06:19:11;7.00;99.90
21582;DHT22;10952;50.836;4.348;2023-12-20T06:21:36;7.00;99.90
21582;DHT22;10952;50.836;4.348;2023-12-20T06:24:04;7.00;99.90
21582;DHT22;10952;50.836;4.348;2023-12-20T06:26:30;7.00;99.90
21582;DHT22;10952;50.836;4.348;2023-12-20T06:28:56;7.00;99.90
21582;DHT22;10952;50.836;4.348;2023-12-20T06:31:21;7.10;99.90
21582;DHT22;10952;50.836;4.348;2023-12-20T06:33:47;7.10;99.90
21582;DHT22;10952;50.836;4.348;2023-12-20T06:36:15;7.00;99.90
21582;DHT22;10952;50.836;4.348;2023-12-20T06:38:40;7.00;99.90
21582;DHT22;10952;50.836;4.348;2023-12-20T06:41:07;7.00;99.90
21582;DHT22;10952;50.836;4.348;2023-12-20T06:43:34;7.00;99.90
21582;DHT22;10952;50.836;4.348;2023-12-20T06:46:03;7.10;99.90
21582;DHT22;10952;50.836;4.348;2023-12-20T06:48:29;7.00;99.90
21582;DHT22;10952;50.836;4.348;2023-12-20T06:50:54;6.90;99.90
21582;DHT22;10952;50.836;4.348;2023-12-20T06:53:20;6.80;99.90
21582;DHT22;10952;50.836;4.348;2023-12-20T06:55:45;6.80;99.90
21582;DHT22;10952;50.836;4.348;2023-12-20T06:58:11;6.80;99.90
21582;DHT22;10952;50.836;4.348;2023-12-20T07:00:37;6.80;99.90
21582;DHT22;10952;50.836;4.348;2023-12-20T07:03:03;6.80;99.90
21582;DHT22;10952;50.836;4.348;2023-12-20T07:05:29;6.80;99.90
21582;DHT22;10952;50.836;4.348;2023-12-20T07:07:55;6.80;99.90
21582;DHT22;10952;50.836;4.348;2023-12-20T07:10:21;6.70;99.90
21582;DHT22;10952;50.836;4.348;2023-12-20T07:12:46;6.80;99.90
21582;DHT22;10952;50.836;4.348;2023-12-20T07:15:14;6.70;99.90
21582;DHT22;10952;50.836;4.348;2023-12-20T07:17:39;6.70;99.90
21582;DHT22;10952;50.836;4.348;2023-12-20T07:20:06;6.60;99.90
21582;DHT22;10952;50.836;4.348;2023-12-20T07:22:35;6.60;99.90
21582;DHT22;10952;50.836;4.348;2023-12-20T07:25:00;6.70;99.90
21582;DHT22;10952;50.836;4.348;2023-12-20T07:27:26;6.60;99.90
21582;DHT22;10952;50.836;4.348;2023-12-20T07:29:52;6.60;99.90
21582;DHT22;10952;50.836;4.348;2023-12-20T07:32:18;6.60;99.90
21582;DHT22;10952;50.836;4.348;2023-12-20T07:34:44;6.50;99.90
21582;DHT22;10952;50.836;4.348;2023-12-20T07:37:10;6.50;99.90
21582;DHT22;10952;50.836;4.348;2023-12-20T07:39:38;6.40;99.90
21582;DHT22;10952;50.836;4.348;2023-12-20T07:42:05;6.40;99.90
21582;DHT22;10952;50.836;4.348;2023-12-20T07:44:31;6.40;99.90
21582;DHT22;10952;50.836;4.348;2023-12-20T07:46:57;6.40;99.90
21582;DHT22;10952;50.836;4.348;2023-12-20T07:49:23;6.40;99.90
21582;DHT22;10952;50.836;4.348;2023-12-20T07:51:49;6.40;99.90
21582;DHT22;10952;50.836;4.348;2023-12-20T07:54:15;6.40;99.90
21582;DHT22;10952;50.836;4.348;2023-12-20T07:56:41;6.50;99.90
21582;DHT22;10952;50.836;4.348;2023-12-20T07:59:07;6.50;99.90
21582;DHT22;10952;50.836;4.348;2023-12-20T08:01:33;6.50;99.90
21582;DHT22;10952;50.836;4.348;2023-12-20T08:03:59;6.50;99.90
21582;DHT22;10952;50.836;4.348;2023-12-20T08:06:24;6.60;99.90
21582;DHT22;10952;50.836;4.348;2023-12-20T08:08:50;6.50;99.90
21582;DHT22;10952;50.836;4.348;2023-12-20T08:11:16;6.40;99.90
21582;DHT22;10952;50.836;4.348;2023-12-20T08:13:43;6.50;99.90
21582;DHT22;10952;50.836;4.348;2023-12-20T08:16:08;6.60;99.90
21582;DHT22;10952;50.836;4.348;2023-12-20T08:18:34;6.60;99.90
21582;DHT22;10952;50.836;4.348;2023-12-20T08:21:00;6.60;99.90
21582;DHT22;10952;50.836;4.348;2023-12-20T08:23:27;6.60;99.90
21582;DHT22;10952;50.836;4.348;2023-12-20T08:25:52;6.70;99.90
21582;DHT22;10952;50.836;4.348;2023-12-20T08:28:19;6.70;99.90
21582;DHT22;10952;50.836;4.348;2023-12-20T08:30:45;6.80;99.90
21582;DHT22;10952;50.836;4.348;2023-12-20T08:33:11;6.70;99.90
21582;DHT22;10952;50.836;4.348;2023-12-20T08:35:39;6.70;99.90
21582;DHT22;10952;50.836;4.348;2023-12-20T08:38:05;6.70;99.90
21582;DHT22;10952;50.836;4.348;2023-12-20T08:40:31;6.80;99.90
21582;DHT22;10952;50.836;4.348;2023-12-20T08:42:57;6.90;99.90
21582;DHT22;10952;50.836;4.348;2023-12-20T08:45:24;6.90;99.90
21582;DHT22;10952;50.836;4.348;2023-12-20T08:47:50;6.90;99.90
21582;DHT22;10952;50.836;4.348;2023-12-20T08:50:15;6.80;99.90
21582;DHT22;10952;50.836;4.348;2023-12-20T08:52:41;6.80;99.90
21582;DHT22;10952;50.836;4.348;2023-12-20T08:55:08;6.70;99.90
21582;DHT22;10952;50.836;4.348;2023-12-20T08:57:35;6.70;99.90
21582;DHT22;10952;50.836;4.348;2023-12-20T09:00:01;6.80;99.90
21582;DHT22;10952;50.836;4.348;2023-12-20T09:02:26;6.80;99.90
21582;DHT22;10952;50.836;4.348;2023-12-20T09:04:52;6.80;99.90
21582;DHT22;10952;50.836;4.348;2023-12-20T09:07:25;6.70;99.90
21582;DHT22;10952;50.836;4.348;2023-12-20T09:09:51;6.90;99.90
21582;DHT22;10952;50.836;4.348;2023-12-20T09:12:20;6.90;99.90
21582;DHT22;10952;50.836;4.348;2023-12-20T09:14:47;6.90;99.90
21582;DHT22;10952;50.836;4.348;2023-12-20T09:17:13;6.90;99.90
21582;DHT22;10952;50.836;4.348;2023-12-20T09:19:39;6.90;99.90
21582;DHT22;10952;50.836;4.348;2023-12-20T09:22:05;6.90;99.90
21582;DHT22;10952;50.836;4.348;2023-12-20T09:24:31;7.00;99.90
21582;DHT22;10952;50.836;4.348;2023-12-20T09:26:57;7.00;99.90
21582;DHT22;10952;50.836;4.348;2023-12-20T09:29:23;7.10;99.90
21582;DHT22;10952;50.836;4.348;2023-12-20T09:31:50;7.00;99.90
21582;DHT22;10952;50.836;4.348;2023-12-20T09:34:16;7.10;99.90
21582;DHT22;10952;50.836;4.348;2023-12-20T09:36:43;7.20;99.90
21582;DHT22;10952;50.836;4.348;2023-12-20T09:39:15;7.30;99.90
21582;DHT22;10952;50.836;4.348;2023-12-20T09:41:45;7.30;99.90
21582;DHT22;10952;50.836;4.348;2023-12-20T09:44:16;7.30;99.90
21582;DHT22;10952;50.836;4.348;2023-12-20T09:46:49;7.40;99.90
21582;DHT22;10952;50.836;4.348;2023-12-20T09:49:17;7.50;99.90
21582;DHT22;10952;50.836;4.348;2023-12-20T09:51:49;7.60;99.90
21582;DHT22;10952;50.836;4.348;2023-12-20T09:54:17;7.60;99.90
21582;DHT22;10952;50.836;4.348;2023-12-20T09:56:44;7.80;99.90
21582;DHT22;10952;50.836;4.348;2023-12-20T09:59:10;7.90;99.90
21582;DHT22;10952;50.836;4.348;2023-12-20T10:01:36;7.90;99.90
21582;DHT22;10952;50.836;4.348;2023-12-20T10:04:07;8.00;99.90
21582;DHT22;10952;50.836;4.348;2023-12-20T10:06:44;8.20;99.90
21582;DHT22;10952;50.836;4.348;2023-12-20T10:09:11;8.20;99.90
21582;DHT22;10952;50.836;4.348;2023-12-20T10:11:38;8.10;99.90
21582;DHT22;10952;50.836;4.348;2023-12-20T10:14:05;8.10;99.90
21582;DHT22;10952;50.836;4.348;2023-12-20T10:16:32;8.00;99.90
21582;DHT22;10952;50.836;4.348;2023-12-20T10:18:59;8.10;99.90
21582;DHT22;10952;50.836;4.348;2023-12-20T10:21:26;8.10;99.90
21582;DHT22;10952;50.836;4.348;2023-12-20T10:23:55;8.30;99.90
21582;DHT22;10952;50.836;4.348;2023-12-20T10:26:22;8.40;99.90
21582;DHT22;10952;50.836;4.348;2023-12-20T10:28:54;8.50;99.90
21582;DHT22;10952;50.836;4.348;2023-12-20T10:33:59;8.60;99.90
21582;DHT22;10952;50.836;4.348;2023-12-20T10:36:27;8.70;99.90
21582;DHT22;10952;50.836;4.348;2023-12-20T10:38:54;8.60;99.90
21582;DHT22;10952;50.836;4.348;2023-12-20T10:44:03;8.60;99.90
21582;DHT22;10952;50.836;4.348;2023-12-20T10:46:30;8.80;99.90
21582;DHT22;10952;50.836;4.348;2023-12-20T10:48:58;8.80;99.90
21582;DHT22;10952;50.836;4.348;2023-12-20T10:51:24;8.80;99.90
21582;DHT22;10952;50.836;4.348;2023-12-20T10:53:53;8.80;99.90
21582;DHT22;10952;50.836;4.348;2023-12-20T10:56:19;9.00;99.90
21582;DHT22;10952;50.836;4.348;2023-12-20T10:58:46;9.10;99.90
21582;DHT22;10952;50.836;4.348;2023-12-20T11:01:14;9.10;99.90
21582;DHT22;10952;50.836;4.348;2023-12-20T11:03:48;9.10;99.90
21582;DHT22;10952;50.836;4.348;2023-12-20T11:11:37;9.30;99.90
21582;DHT22;10952;50.836;4.348;2023-12-20T11:14:07;9.20;99.90
21582;DHT22;10952;50.836;4.348;2023-12-20T11:16:37;9.10;99.90
21582;DHT22;10952;50.836;4.348;2023-12-20T11:19:06;9.00;99.90
21582;DHT22;10952;50.836;4.348;2023-12-20T11:21:32;9.00;99.90
21582;DHT22;10952;50.836;4.348;2023-12-20T11:23:59;9.10;99.90
21582;DHT22;10952;50.836;4.348;2023-12-20T11:26:28;9.20;99.90
21582;DHT22;10952;50.836;4.348;2023-12-20T11:29:33;9.20;99.90
21582;DHT22;10952;50.836;4.348;2023-12-20T11:32:03;9.30;99.90
21582;DHT22;10952;50.836;4.348;2023-12-20T11:34:46;9.30;99.90
21582;DHT22;10952;50.836;4.348;2023-12-20T11:37:13;9.30;99.90
21582;DHT22;10952;50.836;4.348;2023-12-20T11:39:38;9.40;99.90
21582;DHT22;10952;50.836;4.348;2023-12-20T11:42:05;9.40;99.90
21582;DHT22;10952;50.836;4.348;2023-12-20T11:44:31;9.30;99.90
21582;DHT22;10952;50.836;4.348;2023-12-20T11:46:58;9.30;99.90
21582;DHT22;10952;50.836;4.348;2023-12-20T11:49:24;9.20;99.90
21582;DHT22;10952;50.836;4.348;2023-12-20T11:51:50;9.30;99.90
21582;DHT22;10952;50.836;4.348;2023-12-20T11:54:16;9.30;99.90
21582;DHT22;10952;50.836;4.348;2023-12-20T11:56:42;9.30;99.90
21582;DHT22;10952;50.836;4.348;2023-12-20T11:59:08;9.30;99.90
21582;DHT22;10952;50.836;4.348;2023-12-20T12:01:34;9.40;99.90
21582;DHT22;10952;50.836;4.348;2023-12-20T12:04:05;9.50;99.90
21582;DHT22;10952;50.836;4.348;2023-12-20T12:06:31;9.40;99.90
21582;DHT22;10952;50.836;4.348;2023-12-20T12:08:56;9.50;99.90
21582;DHT22;10952;50.836;4.348;2023-12-20T12:11:22;9.50;99.90
21582;DHT22;10952;50.836;4.348;2023-12-20T12:13:49;9.30;99.90
21582;DHT22;10952;50.836;4.348;2023-12-20T12:16:19;9.50;99.90
21582;DHT22;10952;50.836;4.348;2023-12-20T12:18:46;9.50;99.90
21582;DHT22;10952;50.836;4.348;2023-12-20T12:21:19;9.60;99.90
21582;DHT22;10952;50.836;4.348;2023-12-20T12:23:46;9.70;99.90
21582;DHT22;10952;50.836;4.348;2023-12-20T12:26:12;9.80;99.90
21582;DHT22;10952;50.836;4.348;2023-12-20T12:28:40;9.80;99.90
21582;DHT22;10952;50.836;4.348;2023-12-20T12:31:07;9.80;99.90
21582;DHT22;10952;50.836;4.348;2023-12-20T12:33:33;9.70;99.90
21582;DHT22;10952;50.836;4.348;2023-12-20T12:36:00;9.60;99.90
21582;DHT22;10952;50.836;4.348;2023-12-20T12:38:26;9.50;99.90
21582;DHT22;10952;50.836;4.348;2023-12-20T12:40:53;9.60;99.90
21582;DHT22;10952;50.836;4.348;2023-12-20T12:43:19;9.60;99.90
21582;DHT22;10952;50.836;4.348;2023-12-20T12:45:45;9.70;99.90
21582;DHT22;10952;50.836;4.348;2023-12-20T12:48:10;9.70;99.90
21582;DHT22;10952;50.836;4.348;2023-12-20T12:50:36;9.70;99.90
21582;DHT22;10952;50.836;4.348;2023-12-20T12:53:01;9.80;99.90
21582;DHT22;10952;50.836;4.348;2023-12-20T12:55:28;9.80;99.90
21582;DHT22;10952;50.836;4.348;2023-12-20T12:57:54;9.70;99.90
21582;DHT22;10952;50.836;4.348;2023-12-20T13:00:20;9.70;99.90
21582;DHT22;10952;50.836;4.348;2023-12-20T13:02:47;9.60;99.90
21582;DHT22;10952;50.836;4.348;2023-12-20T13:05:13;9.70;99.90
21582;DHT22;10952;50.836;4.348;2023-12-20T13:07:38;9.80;99.90
21582;DHT22;10952;50.836;4.348;2023-12-20T13:10:05;9.80;99.90
21582;DHT22;10952;50.836;4.348;2023-12-20T13:12:31;9.90;99.90
21582;DHT22;10952;50.836;4.348;2023-12-20T13:14:57;9.80;99.90
21582;DHT22;10952;50.836;4.348;2023-12-20T13:17:23;9.80;99.90
21582;DHT22;10952;50.836;4.348;2023-12-20T13:19:49;9.90;99.90
21582;DHT22;10952;50.836;4.348;2023-12-20T13:22:15;9.70;99.90
21582;DHT22;10952;50.836;4.348;2023-12-20T13:24:41;9.80;99.90
21582;DHT22;10952;50.836;4.348;2023-12-20T13:27:09;9.90;99.90
21582;DHT22;10952;50.836;4.348;2023-12-20T13:29:35;9.90;99.90
21582;DHT22;10952;50.836;4.348;2023-12-20T13:32:01;10.00;99.90
21582;DHT22;10952;50.836;4.348;2023-12-20T13:34:29;10.00;99.90
21582;DHT22;10952;50.836;4.348;2023-12-20T13:36:56;10.10;99.90
21582;DHT22;10952;50.836;4.348;2023-12-20T13:39:22;10.20;99.90
21582;DHT22;10952;50.836;4.348;2023-12-20T13:41:48;10.20;99.90
21582;DHT22;10952;50.836;4.348;2023-12-20T13:44:13;10.20;99.90
21582;DHT22;10952;50.836;4.348;2023-12-20T13:46:41;10.10;99.90
21582;DHT22;10952;50.836;4.348;2023-12-20T13:49:07;10.10;99.90
21582;DHT22;10952;50.836;4.348;2023-12-20T13:51:32;10.20;99.90
21582;DHT22;10952;50.836;4.348;2023-12-20T13:53:58;10.20;99.90
21582;DHT22;10952;50.836;4.348;2023-12-20T13:56:25;10.20;99.90
21582;DHT22;10952;50.836;4.348;2023-12-20T13:58:50;10.20;99.90
21582;DHT22;10952;50.836;4.348;2023-12-20T14:01:17;10.30;99.90
21582;DHT22;10952;50.836;4.348;2023-12-20T14:03:43;10.30;99.90
21582;DHT22;10952;50.836;4.348;2023-12-20T14:06:09;10.30;99.90
21582;DHT22;10952;50.836;4.348;2023-12-20T14:08:35;10.30;99.90
21582;DHT22;10952;50.836;4.348;2023-12-20T14:11:01;10.30;99.90
21582;DHT22;10952;50.836;4.348;2023-12-20T14:13:27;10.40;99.90
21582;DHT22;10952;50.836;4.348;2023-12-20T14:15:53;10.40;99.90
21582;DHT22;10952;50.836;4.348;2023-12-20T14:18:20;10.40;99.90
21582;DHT22;10952;50.836;4.348;2023-12-20T14:20:45;10.50;99.90
21582;DHT22;10952;50.836;4.348;2023-12-20T14:23:12;10.50;99.90
21582;DHT22;10952;50.836;4.348;2023-12-20T14:25:41;10.50;99.90
21582;DHT22;10952;50.836;4.348;2023-12-20T14:28:07;10.40;99.90
21582;DHT22;10952;50.836;4.348;2023-12-20T14:30:33;10.50;99.90
21582;DHT22;10952;50.836;4.348;2023-12-20T14:32:59;10.50;99.90
21582;DHT22;10952;50.836;4.348;2023-12-20T14:35:24;10.50;99.90
21582;DHT22;10952;50.836;4.348;2023-12-20T14:37:50;10.50;99.90
21582;DHT22;10952;50.836;4.348;2023-12-20T14:40:16;10.60;99.90
21582;DHT22;10952;50.836;4.348;2023-12-20T14:42:45;10.50;99.90
21582;DHT22;10952;50.836;4.348;2023-12-20T14:45:11;10.50;99.90
21582;DHT22;10952;50.836;4.348;2023-12-20T14:47:38;10.60;99.90
21582;DHT22;10952;50.836;4.348;2023-12-20T14:50:05;10.50;99.90
21582;DHT22;10952;50.836;4.348;2023-12-20T14:52:32;10.50;99.90
21582;DHT22;10952;50.836;4.348;2023-12-20T14:55:00;10.50;99.90
21582;DHT22;10952;50.836;4.348;2023-12-20T14:57:26;10.50;99.90
21582;DHT22;10952;50.836;4.348;2023-12-20T14:59:52;10.60;99.90
21582;DHT22;10952;50.836;4.348;2023-12-20T15:02:17;10.50;99.90
21582;DHT22;10952;50.836;4.348;2023-12-20T15:04:43;10.60;99.90
21582;DHT22;10952;50.836;4.348;2023-12-20T15:07:09;10.70;99.90
21582;DHT22;10952;50.836;4.348;2023-12-20T15:09:35;10.70;99.90
21582;DHT22;10952;50.836;4.348;2023-12-20T15:12:00;10.70;99.90
21582;DHT22;10952;50.836;4.348;2023-12-20T15:14:26;10.70;99.90
21582;DHT22;10952;50.836;4.348;2023-12-20T15:16:53;10.60;99.90
21582;DHT22;10952;50.836;4.348;2023-12-20T15:19:21;10.60;99.90
21582;DHT22;10952;50.836;4.348;2023-12-20T15:21:47;10.50;99.90
21582;DHT22;10952;50.836;4.348;2023-12-20T15:24:13;10.50;99.90
21582;DHT22;10952;50.836;4.348;2023-12-20T15:26:41;10.40;99.90
21582;DHT22;10952;50.836;4.348;2023-12-20T15:29:08;10.40;99.90
21582;DHT22;10952;50.836;4.348;2023-12-20T15:31:36;10.40;99.90
21582;DHT22;10952;50.836;4.348;2023-12-20T15:34:03;10.50;99.90
21582;DHT22;10952;50.836;4.348;2023-12-20T15:36:29;10.40;99.90
21582;DHT22;10952;50.836;4.348;2023-12-20T15:38:54;10.30;99.90
21582;DHT22;10952;50.836;4.348;2023-12-20T15:41:21;10.30;99.90
21582;DHT22;10952;50.836;4.348;2023-12-20T15:43:47;10.30;99.90
21582;DHT22;10952;50.836;4.348;2023-12-20T15:46:14;10.20;99.90
21582;DHT22;10952;50.836;4.348;2023-12-20T15:48:40;10.20;99.90
21582;DHT22;10952;50.836;4.348;2023-12-20T15:51:10;10.20;99.90